Time;durP1;ratioP1;P1;durP2;ratioP2;P2;SDS_P1;SDS_P2;PMS_P1;PMS_P2;Temp;Humidity;BMP_temperature;BMP_pressure;BME280_temperature;BME280_humidity;BME280_pressure;Samples;Min_cycle;Max_cycle;Signal;HPM_P1;HPM_P2
2023/01/14 00:00:18;;;;;;;7.00;1.50;;;6.40;99.90;;;;;;5039514;28;20477;-54
2023/01/14 00:02:44;;;;;;;7.43;2.58;;;6.40;99.90;;;;;;5040647;28;20057;-55
2023/01/14 00:05:09;;;;;;;10.20;2.30;;;6.40;99.90;;;;;;5039361;28;20049;-57
2023/01/14 00:07:35;;;;;;;12.50;2.47;;;6.30;99.90;;;;;;5023134;28;20025;-56
2023/01/14 00:10:00;;;;;;;5.63;2.05;;;6.30;99.90;;;;;;5023188;28;20018;-57
2023/01/14 00:12:26;;;;;;;11.80;2.38;;;6.20;99.90;;;;;;5023929;28;20501;-57
2023/01/14 00:14:52;;;;;;;11.32;2.45;;;6.30;99.90;;;;;;5040161;28;20099;-56
2023/01/14 00:17:18;;;;;;;10.55;2.22;;;6.30;99.90;;;;;;5039651;28;20061;-55
2023/01/14 00:19:43;;;;;;;14.05;2.95;;;6.20;99.90;;;;;;5038770;28;20025;-55
2023/01/14 00:22:09;;;;;;;6.65;1.67;;;6.20;99.90;;;;;;5040167;28;20028;-58
2023/01/14 00:24:34;;;;;;;13.07;1.92;;;6.20;99.90;;;;;;5021422;28;20025;-54
2023/01/14 00:27:00;;;;;;;9.43;2.13;;;6.30;99.90;;;;;;5038323;28;20155;-58
2023/01/14 00:29:33;;;;;;;12.57;2.83;;;6.20;99.90;;;;;;5021747;28;20374;-57
2023/01/14 00:32:04;;;;;;;10.48;2.33;;;6.20;99.90;;;;;;5039132;28;20530;-57
2023/01/14 00:34:31;;;;;;;11.02;2.17;;;6.20;99.90;;;;;;5039018;28;20098;-59
2023/01/14 00:36:58;;;;;;;10.63;2.85;;;6.20;99.90;;;;;;5040676;28;20025;-53
2023/01/14 00:39:24;;;;;;;9.07;2.38;;;6.20;99.90;;;;;;5038779;28;20078;-57
2023/01/14 00:41:50;;;;;;;10.32;2.55;;;6.20;99.90;;;;;;5038449;28;20029;-56
2023/01/14 00:44:17;;;;;;;8.38;1.83;;;6.20;99.90;;;;;;5040184;28;20025;-57
2023/01/14 00:46:42;;;;;;;10.45;2.42;;;6.20;99.90;;;;;;5039462;28;20031;-58
2023/01/14 00:49:15;;;;;;;8.77;2.10;;;6.20;99.90;;;;;;5038506;28;20442;-58
2023/01/14 00:51:41;;;;;;;5.97;2.08;;;6.20;99.90;;;;;;5038171;28;20375;-56
2023/01/14 00:54:06;;;;;;;8.20;1.58;;;6.20;99.90;;;;;;5039784;28;20031;-57
2023/01/14 00:56:32;;;;;;;6.60;1.45;;;6.20;99.90;;;;;;5039502;28;20029;-57
2023/01/14 00:58:57;;;;;;;8.63;1.90;;;6.20;99.90;;;;;;5040102;28;20025;-55
2023/01/14 01:01:23;;;;;;;10.02;1.63;;;6.10;99.90;;;;;;5039198;28;20028;-57
2023/01/14 01:03:54;;;;;;;7.82;2.03;;;6.10;99.90;;;;;;5039552;28;20044;-57
2023/01/14 01:06:22;;;;;;;5.38;1.45;;;6.20;99.90;;;;;;5038958;28;20049;-56
2023/01/14 01:08:49;;;;;;;4.90;1.90;;;6.20;99.90;;;;;;5037689;28;20067;-53
2023/01/14 01:11:15;;;;;;;3.72;1.20;;;6.10;99.90;;;;;;5039065;28;20033;-53
2023/01/14 01:13:41;;;;;;;5.40;2.10;;;6.10;99.90;;;;;;5039136;28;20057;-58
2023/01/14 01:16:12;;;;;;;8.57;1.50;;;6.00;99.90;;;;;;5038861;28;20085;-56
2023/01/14 01:18:38;;;;;;;6.72;2.05;;;6.00;99.90;;;;;;5020647;28;20033;-58
2023/01/14 01:21:14;;;;;;;11.38;1.45;;;6.00;99.90;;;;;;5039217;28;20033;-55
2023/01/14 01:23:41;;;;;;;13.35;2.22;;;6.00;99.90;;;;;;5020419;28;20057;-58
2023/01/14 01:26:15;;;;;;;8.65;1.70;;;6.00;99.90;;;;;;5038329;28;20020;-56
2023/01/14 01:28:41;;;;;;;12.23;1.95;;;6.00;99.90;;;;;;5019843;28;20031;-58
2023/01/14 01:31:10;;;;;;;6.57;1.60;;;5.90;99.90;;;;;;5020114;28;20018;-56
2023/01/14 01:33:36;;;;;;;8.65;2.03;;;5.90;99.90;;;;;;5037845;28;20408;-58
2023/01/14 01:36:08;;;;;;;8.05;2.47;;;5.90;99.90;;;;;;5017568;28;20022;-57
2023/01/14 01:38:33;;;;;;;6.90;1.48;;;5.80;99.90;;;;;;5038623;28;20482;-57
2023/01/14 01:40:59;;;;;;;8.80;1.55;;;5.80;99.90;;;;;;5037986;28;20075;-57
2023/01/14 01:43:28;;;;;;;4.38;1.17;;;5.70;99.90;;;;;;5038742;28;20025;-58
2023/01/14 01:45:56;;;;;;;8.93;1.55;;;5.70;99.90;;;;;;5021204;28;20044;-55
2023/01/14 01:48:22;;;;;;;8.20;1.80;;;5.70;99.90;;;;;;5024873;28;20451;-57
2023/01/14 01:50:54;;;;;;;8.63;2.10;;;5.70;99.90;;;;;;5036974;28;20025;-54
2023/01/14 01:53:20;;;;;;;8.63;1.15;;;5.70;99.90;;;;;;5039716;28;20029;-56
2023/01/14 01:55:51;;;;;;;3.92;1.38;;;5.70;99.90;;;;;;5035719;28;20065;-57
2023/01/14 01:58:17;;;;;;;13.20;2.78;;;5.70;99.90;;;;;;5035890;28;20033;-57
2023/01/14 02:00:43;;;;;;;7.03;1.33;;;5.70;99.90;;;;;;5034987;28;20086;-57
2023/01/14 02:03:19;;;;;;;7.78;2.30;;;5.60;99.90;;;;;;5036275;28;20478;-57
2023/01/14 02:05:46;;;;;;;10.88;2.13;;;5.60;99.90;;;;;;5036708;28;20017;-56
2023/01/14 02:08:12;;;;;;;9.15;2.53;;;5.60;99.90;;;;;;5035246;28;20512;-55
2023/01/14 02:11:04;;;;;;;4.40;1.35;;;5.60;99.90;;;;;;5038239;28;20038;-57
2023/01/14 02:13:41;;;;;;;9.15;1.40;;;5.60;99.90;;;;;;5037645;28;20083;-57
2023/01/14 02:16:16;;;;;;;4.78;1.42;;;5.70;99.90;;;;;;5036012;28;20087;-57
2023/01/14 02:19:23;;;;;;;7.78;1.17;;;5.70;99.90;;;;;;5035189;28;20040;-56
2023/01/14 02:22:46;;;;;;;8.88;1.52;;;5.70;99.90;;;;;;4927201;29;20032;-57
2023/01/14 02:25:25;;;;;;;11.43;1.83;;;5.80;99.90;;;;;;4929051;29;20114;-57
2023/01/14 02:28:09;;;;;;;4.35;1.77;;;5.90;99.90;;;;;;4928473;29;20031;-56
2023/01/14 02:31:14;;;;;;;8.07;1.65;;;5.80;99.90;;;;;;5002119;28;20098;-57
2023/01/14 02:33:52;;;;;;;7.55;1.42;;;5.80;99.90;;;;;;4998955;28;20413;-56
2023/01/14 02:36:48;;;;;;;5.20;1.92;;;5.90;99.90;;;;;;5037123;28;20112;-57
2023/01/14 02:39:30;;;;;;;5.88;1.23;;;5.90;99.90;;;;;;5035647;28;20028;-57
2023/01/14 02:45:01;;;;;;;8.48;1.77;;;5.90;99.90;;;;;;5035738;28;20025;-58
2023/01/14 02:47:28;;;;;;;10.50;2.05;;;5.90;99.90;;;;;;5037362;28;20543;-55
2023/01/14 02:49:57;;;;;;;7.25;1.73;;;5.90;99.90;;;;;;5036182;28;20063;-59
2023/01/14 02:52:24;;;;;;;5.30;1.40;;;5.90;99.90;;;;;;5037265;28;20029;-55
2023/01/14 02:54:57;;;;;;;10.63;2.33;;;5.90;99.90;;;;;;5037525;28;20025;-55
2023/01/14 02:57:50;;;;;;;7.82;1.48;;;5.90;99.90;;;;;;5037478;28;20018;-56
2023/01/14 03:00:37;;;;;;;9.48;2.58;;;5.90;99.90;;;;;;5036889;28;20014;-58
2023/01/14 03:03:21;;;;;;;7.10;1.75;;;5.90;99.90;;;;;;5037823;28;20041;-58
2023/01/14 03:06:15;;;;;;;5.20;1.83;;;5.80;99.90;;;;;;5036070;28;20086;-57
2023/01/14 03:08:56;;;;;;;8.40;1.52;;;5.80;99.90;;;;;;5019974;28;20404;-57
2023/01/14 03:11:24;;;;;;;5.63;1.65;;;5.80;99.90;;;;;;5035493;28;20037;-58
2023/01/14 03:14:01;;;;;;;6.32;1.58;;;5.80;99.90;;;;;;5016645;28;20033;-57
2023/01/14 03:16:29;;;;;;;6.13;1.33;;;5.80;99.90;;;;;;5036283;28;20029;-57
2023/01/14 03:19:00;;;;;;;5.32;1.77;;;5.80;99.90;;;;;;5036982;28;20069;-55
2023/01/14 03:21:36;;;;;;;8.20;1.20;;;5.90;99.90;;;;;;5038130;28;20029;-58
2023/01/14 03:24:11;;;;;;;11.32;2.45;;;5.90;99.90;;;;;;5037516;28;20049;-58
2023/01/14 03:26:39;;;;;;;12.48;1.85;;;5.90;99.90;;;;;;5018996;28;20037;-57
2023/01/14 03:29:14;;;;;;;4.55;1.52;;;5.90;99.90;;;;;;5036465;28;20025;-57
2023/01/14 03:31:46;;;;;;;7.18;1.35;;;5.90;99.90;;;;;;5036543;28;20032;-55
2023/01/14 03:34:20;;;;;;;4.88;1.50;;;5.90;99.90;;;;;;5037222;28;20025;-55
2023/01/14 03:36:50;;;;;;;3.47;1.30;;;5.90;99.90;;;;;;5018688;28;20401;-56
2023/01/14 03:39:18;;;;;;;8.13;1.55;;;6.00;99.90;;;;;;5020807;28;20017;-58
2023/01/14 03:44:57;;;;;;;9.65;1.85;;;6.00;99.90;;;;;;5039304;28;20112;-56
2023/01/14 03:47:26;;;;;;;3.70;1.00;;;6.00;99.90;;;;;;5022614;28;20047;-56
2023/01/14 03:49:52;;;;;;;7.65;2.15;;;6.00;99.90;;;;;;5039080;28;20033;-56
2023/01/14 03:52:35;;;;;;;9.70;2.45;;;6.00;99.90;;;;;;5040835;28;20017;-57
2023/01/14 03:55:15;;;;;;;3.20;0.90;;;6.00;99.90;;;;;;5039239;28;20039;-56
2023/01/14 03:57:55;;;;;;;4.97;1.50;;;6.00;99.90;;;;;;5039745;28;20022;-54
2023/01/14 04:00:32;;;;;;;5.63;1.17;;;6.00;99.90;;;;;;5040626;28;20035;-57
2023/01/14 04:03:00;;;;;;;7.93;1.30;;;6.00;99.90;;;;;;5039048;28;20025;-58
2023/01/14 04:05:27;;;;;;;2.63;1.05;;;6.00;99.90;;;;;;5039589;28;20092;-56
2023/01/14 04:07:56;;;;;;;3.85;0.88;;;6.00;99.90;;;;;;5040038;28;20092;-57
2023/01/14 04:10:22;;;;;;;5.97;1.48;;;6.00;99.90;;;;;;5039229;28;20055;-57
2023/01/14 04:15:32;;;;;;;5.47;1.38;;;6.00;99.90;;;;;;5038516;28;20044;-58
2023/01/14 04:17:57;;;;;;;3.17;1.10;;;5.90;99.90;;;;;;5039532;28;20029;-57
2023/01/14 04:20:23;;;;;;;4.85;1.25;;;6.00;99.90;;;;;;5039865;28;20029;-56
2023/01/14 04:22:48;;;;;;;4.13;0.90;;;6.00;99.90;;;;;;5020765;28;20045;-56
2023/01/14 04:25:14;;;;;;;7.93;1.02;;;6.00;99.90;;;;;;5040042;28;20450;-56
2023/01/14 04:27:39;;;;;;;4.00;0.98;;;5.90;99.90;;;;;;5039072;28;20027;-56
2023/01/14 04:30:06;;;;;;;3.15;0.90;;;6.00;99.90;;;;;;5021000;28;20024;-54
2023/01/14 04:32:31;;;;;;;6.28;1.23;;;5.90;99.90;;;;;;5039988;28;20108;-57
2023/01/14 04:34:57;;;;;;;2.47;0.70;;;5.90;99.90;;;;;;5039516;28;20103;-57
2023/01/14 04:37:22;;;;;;;1.95;0.75;;;5.90;99.90;;;;;;5021329;28;20026;-55
2023/01/14 04:39:50;;;;;;;0.98;0.82;;;5.90;99.90;;;;;;5019991;28;20409;-57
2023/01/14 04:42:28;;;;;;;5.38;0.77;;;5.90;99.90;;;;;;5018932;28;20024;-56
2023/01/14 04:44:59;;;;;;;4.80;1.48;;;5.90;99.90;;;;;;5037563;28;20057;-56
2023/01/14 04:47:25;;;;;;;4.25;0.80;;;5.90;99.90;;;;;;5038481;28;20021;-57
2023/01/14 04:49:51;;;;;;;3.25;0.80;;;5.90;99.90;;;;;;5039764;28;21383;-55
2023/01/14 04:52:17;;;;;;;3.60;0.70;;;5.90;99.90;;;;;;5038124;28;20100;-56
2023/01/14 04:54:43;;;;;;;7.20;1.25;;;5.90;99.90;;;;;;5038472;28;20100;-56
2023/01/14 04:57:09;;;;;;;4.82;1.38;;;5.90;99.90;;;;;;5039551;28;20029;-56
2023/01/14 04:59:35;;;;;;;3.78;0.82;;;5.90;99.90;;;;;;5038797;28;20037;-56
2023/01/14 05:02:00;;;;;;;2.78;0.88;;;5.90;99.90;;;;;;5021104;28;20018;-58
2023/01/14 05:04:26;;;;;;;3.35;0.80;;;5.80;99.90;;;;;;5040270;28;20092;-58
2023/01/14 05:06:53;;;;;;;5.00;1.52;;;5.80;99.90;;;;;;5020380;28;20029;-56
2023/01/14 05:09:19;;;;;;;2.70;1.73;;;5.80;99.90;;;;;;5038545;28;20029;-56
2023/01/14 05:11:44;;;;;;;6.22;1.10;;;5.80;99.90;;;;;;5038664;28;20079;-55
2023/01/14 05:14:10;;;;;;;4.05;1.20;;;5.80;99.90;;;;;;5038859;28;20101;-58
2023/01/14 05:16:36;;;;;;;5.13;1.40;;;5.80;99.90;;;;;;5037787;28;20037;-56
2023/01/14 05:19:02;;;;;;;4.70;1.55;;;5.80;99.90;;;;;;5039839;28;20371;-57
2023/01/14 05:21:27;;;;;;;1.88;1.42;;;5.80;99.90;;;;;;5020864;28;20047;-56
2023/01/14 05:23:53;;;;;;;4.95;1.65;;;5.80;99.90;;;;;;5039682;28;20021;-56
2023/01/14 05:26:18;;;;;;;7.05;1.67;;;5.80;99.90;;;;;;5021137;28;20116;-54
2023/01/14 05:28:44;;;;;;;4.57;1.35;;;5.80;99.90;;;;;;5037940;28;20048;-55
2023/01/14 05:31:09;;;;;;;2.65;1.35;;;5.80;99.90;;;;;;5037634;28;20019;-54
2023/01/14 05:33:35;;;;;;;6.65;1.83;;;5.80;99.90;;;;;;5037063;28;20029;-56
2023/01/14 05:36:01;;;;;;;3.70;1.25;;;5.80;99.90;;;;;;5039344;28;20017;-52
2023/01/14 05:38:27;;;;;;;4.68;1.70;;;5.90;99.90;;;;;;5039315;28;20029;-55
2023/01/14 05:40:53;;;;;;;6.82;1.77;;;5.80;99.90;;;;;;5019636;28;20021;-55
2023/01/14 05:46:13;;;;;;;10.07;3.13;;;5.90;99.90;;;;;;5039165;28;20525;-54
2023/01/14 05:48:38;;;;;;;8.93;2.53;;;5.80;99.90;;;;;;5038774;28;20501;-56
2023/01/14 05:51:05;;;;;;;8.75;2.25;;;5.90;99.90;;;;;;5038694;28;20036;-57
2023/01/14 05:53:32;;;;;;;7.50;2.60;;;5.90;99.90;;;;;;5039251;28;20202;-53
2023/01/14 05:55:58;;;;;;;7.47;3.03;;;5.90;99.90;;;;;;5037320;28;20100;-57
2023/01/14 05:58:24;;;;;;;10.77;2.88;;;5.90;99.90;;;;;;5038666;28;20044;-58
2023/01/14 06:06:26;;;;;;;9.30;3.05;;;5.90;99.90;;;;;;5038063;28;20400;-54
2023/01/14 06:08:53;;;;;;;12.38;3.42;;;6.00;99.90;;;;;;5038475;28;20045;-55
2023/01/14 06:11:20;;;;;;;8.60;3.33;;;5.90;99.90;;;;;;5019903;28;20746;-57
2023/01/14 06:13:49;;;;;;;13.32;3.05;;;6.00;99.90;;;;;;5020290;28;20488;-56
2023/01/14 06:16:14;;;;;;;7.90;2.55;;;6.00;99.90;;;;;;5037695;28;20093;-55
2023/01/14 06:18:43;;;;;;;10.50;3.38;;;6.00;99.90;;;;;;5038456;28;20025;-56
2023/01/14 06:21:16;;;;;;;9.85;3.60;;;6.00;99.90;;;;;;5036736;28;20052;-56
2023/01/14 06:23:42;;;;;;;9.55;3.20;;;6.00;99.90;;;;;;5018369;28;20556;-56
2023/01/14 06:26:12;;;;;;;9.90;3.40;;;6.00;99.90;;;;;;5037284;28;20103;-54
2023/01/14 06:28:38;;;;;;;12.85;4.35;;;6.00;99.90;;;;;;5037574;28;20029;-55
2023/01/14 06:31:12;;;;;;;10.88;3.67;;;6.00;99.90;;;;;;5037665;28;20035;-55
2023/01/14 06:33:38;;;;;;;10.57;3.35;;;6.10;99.90;;;;;;5037930;28;20542;-55
2023/01/14 06:36:04;;;;;;;8.40;3.80;;;6.10;99.90;;;;;;5037483;28;20066;-55
2023/01/14 06:38:29;;;;;;;12.10;3.63;;;6.10;99.90;;;;;;5036783;28;20017;-55
2023/01/14 06:40:58;;;;;;;8.32;3.72;;;6.10;99.90;;;;;;5036434;28;20018;-55
2023/01/14 06:43:24;;;;;;;12.30;3.97;;;6.10;99.90;;;;;;5036954;28;20033;-58
2023/01/14 06:45:54;;;;;;;10.57;4.82;;;6.10;99.90;;;;;;5037839;28;20025;-57
2023/01/14 06:48:20;;;;;;;12.43;5.13;;;6.10;99.90;;;;;;5036741;28;20061;-56
2023/01/14 06:50:45;;;;;;;15.77;4.40;;;6.10;99.90;;;;;;5036116;28;20076;-56
2023/01/14 06:53:11;;;;;;;12.77;3.95;;;6.10;99.90;;;;;;5038155;28;20121;-57
2023/01/14 06:55:36;;;;;;;8.77;4.00;;;6.10;99.90;;;;;;5036019;28;20613;-58
2023/01/14 06:58:02;;;;;;;11.93;4.03;;;6.10;99.90;;;;;;5036565;28;20025;-57
2023/01/14 07:00:28;;;;;;;10.38;3.42;;;6.10;99.90;;;;;;5037673;28;20025;-57
2023/01/14 07:02:54;;;;;;;13.02;3.75;;;6.10;99.90;;;;;;5037471;28;20017;-58
2023/01/14 07:05:20;;;;;;;12.60;3.65;;;6.10;99.90;;;;;;5018305;28;20036;-57
2023/01/14 07:07:47;;;;;;;11.52;3.40;;;6.10;99.90;;;;;;5037464;28;20029;-57
2023/01/14 07:10:13;;;;;;;14.23;3.60;;;6.10;99.90;;;;;;5037563;28;20029;-57
2023/01/14 07:12:42;;;;;;;14.88;3.50;;;6.10;99.90;;;;;;5034860;28;20025;-56
2023/01/14 07:15:08;;;;;;;9.68;2.78;;;6.10;99.90;;;;;;5021836;28;20405;-56
2023/01/14 07:17:33;;;;;;;11.00;3.53;;;6.10;99.90;;;;;;5040134;28;20033;-54
2023/01/14 07:19:59;;;;;;;14.10;2.88;;;6.10;99.90;;;;;;5021987;28;20040;-54
2023/01/14 07:22:25;;;;;;;7.53;2.30;;;6.10;99.90;;;;;;5040635;28;20028;-56
2023/01/14 07:24:51;;;;;;;6.72;2.70;;;6.10;99.90;;;;;;5041954;28;20029;-54
2023/01/14 07:27:17;;;;;;;10.75;2.67;;;6.00;99.90;;;;;;5041754;28;20500;-55
2023/01/14 07:29:42;;;;;;;8.90;3.13;;;6.00;99.90;;;;;;5021865;28;20029;-55
2023/01/14 07:32:08;;;;;;;10.43;2.70;;;6.00;99.90;;;;;;5024154;28;20377;-55
2023/01/14 07:34:33;;;;;;;10.85;3.53;;;6.00;99.90;;;;;;5041356;28;20048;-58
2023/01/14 07:36:59;;;;;;;10.80;2.78;;;5.90;99.90;;;;;;5041499;28;20108;-56
2023/01/14 07:39:24;;;;;;;11.98;2.92;;;5.90;99.90;;;;;;5040401;28;20159;-57
2023/01/14 07:41:50;;;;;;;8.15;2.17;;;5.90;99.90;;;;;;5039879;28;20490;-57
2023/01/14 07:44:23;;;;;;;11.15;2.90;;;5.90;99.90;;;;;;5039572;28;20025;-58
2023/01/14 07:46:53;;;;;;;12.95;3.20;;;5.80;99.90;;;;;;5037547;28;20128;-58
2023/01/14 07:49:20;;;;;;;9.50;3.33;;;5.80;99.90;;;;;;5040000;28;20029;-56
2023/01/14 07:51:46;;;;;;;5.10;1.95;;;5.80;99.90;;;;;;5040471;28;20025;-54
2023/01/14 07:54:11;;;;;;;9.85;2.40;;;5.70;99.90;;;;;;5042507;28;20508;-58
2023/01/14 07:56:37;;;;;;;8.77;2.92;;;5.70;99.90;;;;;;5040181;28;20064;-55
2023/01/14 07:59:02;;;;;;;9.32;3.53;;;5.70;99.90;;;;;;5040866;28;20029;-55
2023/01/14 08:01:28;;;;;;;11.80;3.25;;;5.70;99.90;;;;;;5040302;28;20031;-58
2023/01/14 08:03:53;;;;;;;8.05;3.20;;;5.60;99.90;;;;;;5040340;28;20022;-57
2023/01/14 08:06:19;;;;;;;7.20;2.80;;;5.60;99.90;;;;;;5039519;28;20029;-56
2023/01/14 08:08:44;;;;;;;12.88;3.70;;;5.60;99.90;;;;;;5040469;28;20046;-56
2023/01/14 08:11:10;;;;;;;14.57;3.83;;;5.60;99.90;;;;;;5021952;28;20094;-57
2023/01/14 08:13:36;;;;;;;9.95;3.55;;;5.60;99.90;;;;;;5037235;28;20030;-56
2023/01/14 08:16:04;;;;;;;15.50;3.88;;;5.60;99.90;;;;;;5039697;28;20024;-54
2023/01/14 08:18:31;;;;;;;11.88;4.35;;;5.60;99.90;;;;;;5040673;28;20446;-54
2023/01/14 08:21:05;;;;;;;13.32;4.15;;;5.50;99.90;;;;;;5021751;28;20018;-57
2023/01/14 08:23:31;;;;;;;14.40;3.38;;;5.50;99.90;;;;;;5021555;28;20025;-57
2023/01/14 08:26:04;;;;;;;16.75;4.32;;;5.50;99.90;;;;;;5039054;28;20024;-56
2023/01/14 08:28:30;;;;;;;11.20;3.83;;;5.50;99.90;;;;;;5021588;28;20030;-55
2023/01/14 08:31:07;;;;;;;10.77;4.07;;;5.50;99.90;;;;;;5021475;28;20074;-56
2023/01/14 08:33:33;;;;;;;14.15;4.25;;;5.50;99.90;;;;;;5038382;28;20068;-56
2023/01/14 08:36:05;;;;;;;16.25;4.97;;;5.50;99.90;;;;;;5039535;28;20596;-57
2023/01/14 08:38:32;;;;;;;12.70;4.05;;;5.50;99.90;;;;;;5038546;28;20040;-58
2023/01/14 08:40:59;;;;;;;15.52;3.95;;;5.50;99.90;;;;;;5038996;28;20024;-56
2023/01/14 08:43:24;;;;;;;14.90;3.42;;;5.50;99.90;;;;;;5022040;28;20036;-57
2023/01/14 08:45:50;;;;;;;13.02;3.63;;;5.50;99.90;;;;;;5040252;28;20025;-57
2023/01/14 08:48:16;;;;;;;13.95;3.67;;;5.50;99.90;;;;;;5025346;28;20033;-56
2023/01/14 08:50:41;;;;;;;15.27;5.30;;;5.50;99.90;;;;;;5040393;28;20033;-58
2023/01/14 08:53:07;;;;;;;11.45;4.03;;;5.60;99.90;;;;;;5039172;28;20120;-57
2023/01/14 08:55:32;;;;;;;12.43;3.03;;;5.60;99.90;;;;;;5038275;28;20029;-57
2023/01/14 08:57:58;;;;;;;13.65;4.05;;;5.60;99.90;;;;;;5039907;28;20025;-56
2023/01/14 09:00:24;;;;;;;13.05;3.85;;;5.60;99.90;;;;;;5038401;28;20563;-56
2023/01/14 09:02:49;;;;;;;14.68;4.20;;;5.60;99.90;;;;;;5039011;28;20143;-55
2023/01/14 09:05:15;;;;;;;12.52;4.40;;;5.60;99.90;;;;;;5037301;28;20022;-54
2023/01/14 09:18:41;;;;;;;16.70;5.35;;;5.70;99.90;;;;;;5038835;28;20039;-56
2023/01/14 09:21:07;;;;;;;11.77;4.00;;;5.70;99.90;;;;;;5037836;28;20040;-57
2023/01/14 09:23:33;;;;;;;14.63;4.05;;;5.70;99.90;;;;;;5037783;28;20025;-57
2023/01/14 09:25:58;;;;;;;15.40;4.28;;;5.70;99.90;;;;;;5037150;28;20022;-55
2023/01/14 09:28:24;;;;;;;14.30;4.82;;;5.70;99.90;;;;;;5037237;28;20030;-56
2023/01/14 09:30:49;;;;;;;16.90;4.47;;;5.80;99.90;;;;;;5037746;28;20041;-58
2023/01/14 09:33:15;;;;;;;15.43;5.10;;;5.80;99.90;;;;;;5038408;28;20030;-55
2023/01/14 09:35:41;;;;;;;16.42;5.38;;;5.80;99.90;;;;;;5039510;28;20487;-56
2023/01/14 09:38:06;;;;;;;12.82;4.72;;;5.80;99.90;;;;;;5034495;28;20033;-56
2023/01/14 09:40:36;;;;;;;22.27;5.72;;;5.80;99.90;;;;;;5038921;28;20418;-55
2023/01/14 09:43:01;;;;;;;14.57;5.35;;;5.90;99.90;;;;;;5038874;28;20120;-54
2023/01/14 09:45:30;;;;;;;15.68;4.65;;;5.90;99.90;;;;;;5038420;28;20098;-54
2023/01/14 09:47:59;;;;;;;19.42;4.72;;;5.90;99.90;;;;;;5037837;28;20029;-57
2023/01/14 09:53:29;;;;;;;20.65;5.43;;;5.90;99.90;;;;;;5026899;28;20531;-59
2023/01/14 09:56:00;;;;;;;23.00;5.35;;;5.90;99.90;;;;;;5028024;28;20076;-55
2023/01/14 09:58:39;;;;;;;12.93;4.93;;;6.00;99.90;;;;;;5028476;28;20053;-60
2023/01/14 10:01:26;;;;;;;16.60;4.93;;;6.00;99.90;;;;;;5028243;28;20386;-58
2023/01/14 10:03:57;;;;;;;19.88;6.32;;;6.00;99.90;;;;;;5028523;28;20112;-55
2023/01/14 10:06:23;;;;;;;19.17;5.22;;;6.00;99.90;;;;;;5028198;28;20452;-58
2023/01/14 10:08:57;;;;;;;10.85;5.30;;;6.10;99.90;;;;;;5028899;28;20022;-58
2023/01/14 10:11:25;;;;;;;17.52;6.00;;;6.10;99.90;;;;;;5028671;28;20390;-57
2023/01/14 10:14:22;;;;;;;12.65;5.38;;;6.10;99.90;;;;;;5028569;28;20033;-61
2023/01/14 10:16:54;;;;;;;21.38;6.25;;;6.10;99.90;;;;;;5028710;28;20630;-60
2023/01/14 10:19:32;;;;;;;23.52;6.53;;;6.10;99.90;;;;;;5010475;28;20021;-59
2023/01/14 10:22:19;;;;;;;10.38;5.78;;;6.10;99.90;;;;;;5010999;28;20021;-58
2023/01/14 10:24:45;;;;;;;17.92;5.55;;;6.10;99.90;;;;;;5028037;28;20084;-59
2023/01/14 10:27:15;;;;;;;15.27;5.10;;;6.10;99.90;;;;;;5028591;28;20025;-59
2023/01/14 10:29:41;;;;;;;19.63;6.13;;;6.20;99.90;;;;;;5028449;28;20485;-58
2023/01/14 10:32:11;;;;;;;16.92;4.90;;;6.20;99.90;;;;;;5010442;28;20136;-59
2023/01/14 10:34:53;;;;;;;17.88;4.65;;;6.20;99.90;;;;;;5027599;28;20025;-57
2023/01/14 10:37:18;;;;;;;19.42;6.00;;;6.20;99.90;;;;;;5027903;28;20073;-58
2023/01/14 10:39:52;;;;;;;12.75;5.47;;;6.20;99.90;;;;;;5027533;28;20068;-60
2023/01/14 10:42:24;;;;;;;12.77;5.80;;;6.20;99.90;;;;;;5028545;28;20064;-58
2023/01/14 10:44:52;;;;;;;14.20;5.32;;;6.20;99.90;;;;;;5027240;28;20017;-57
2023/01/14 10:47:18;;;;;;;23.85;5.85;;;6.30;99.90;;;;;;5028035;28;20227;-59
2023/01/14 10:49:47;;;;;;;16.20;5.07;;;6.30;99.90;;;;;;5026707;28;20033;-59
2023/01/14 10:52:31;;;;;;;16.25;5.88;;;6.30;99.90;;;;;;5028279;28;20034;-57
2023/01/14 10:55:18;;;;;;;14.85;4.75;;;6.30;99.90;;;;;;5027841;28;20067;-60
2023/01/14 10:57:46;;;;;;;14.10;4.72;;;6.30;99.90;;;;;;5027485;28;20131;-59
2023/01/14 11:00:46;;;;;;;17.17;5.00;;;6.40;99.90;;;;;;5027742;28;20030;-59
2023/01/14 11:03:28;;;;;;;24.52;6.38;;;6.40;99.90;;;;;;5027865;28;20028;-57
2023/01/14 11:06:04;;;;;;;14.98;4.80;;;6.40;99.90;;;;;;5027545;28;20100;-60
2023/01/14 11:08:40;;;;;;;17.98;4.97;;;6.40;99.90;;;;;;5026989;28;20029;-59
2023/01/14 11:11:18;;;;;;;16.30;5.70;;;6.50;99.90;;;;;;5028084;28;20464;-58
2023/01/14 11:13:46;;;;;;;17.38;5.45;;;6.40;99.90;;;;;;5027885;28;20040;-59
2023/01/14 11:16:24;;;;;;;9.20;4.55;;;6.50;99.90;;;;;;5008919;28;20045;-59
2023/01/14 11:18:56;;;;;;;18.05;4.68;;;6.50;99.90;;;;;;5027162;28;20517;-58
2023/01/14 11:21:24;;;;;;;15.35;5.00;;;6.50;99.90;;;;;;5028036;28;20017;-59
2023/01/14 11:23:57;;;;;;;16.67;4.18;;;6.50;99.90;;;;;;5027131;28;20034;-58
2023/01/14 11:26:49;;;;;;;14.82;4.18;;;6.60;99.90;;;;;;5027690;28;20025;-58
2023/01/14 11:29:22;;;;;;;19.33;4.53;;;6.60;99.90;;;;;;5007638;28;20041;-59
2023/01/14 11:31:51;;;;;;;14.80;4.15;;;6.60;99.90;;;;;;5027440;28;20033;-58
2023/01/14 11:34:55;;;;;;;18.02;3.70;;;6.60;99.90;;;;;;5009854;28;20022;-58
2023/01/14 11:37:24;;;;;;;17.77;3.15;;;6.60;99.90;;;;;;5027588;28;20033;-57
2023/01/14 11:39:57;;;;;;;13.07;4.10;;;6.60;99.90;;;;;;5027701;28;20068;-56
2023/01/14 11:42:31;;;;;;;23.17;5.00;;;6.60;99.90;;;;;;5027012;28;20828;-58
2023/01/14 11:45:00;;;;;;;17.45;4.68;;;6.60;99.90;;;;;;5027478;28;20117;-59
2023/01/14 11:47:29;;;;;;;13.85;4.40;;;6.60;99.90;;;;;;5027527;28;20052;-59
2023/01/14 11:50:16;;;;;;;15.25;3.60;;;6.60;99.90;;;;;;5010125;28;20083;-58
2023/01/14 11:52:57;;;;;;;22.30;4.47;;;6.60;99.90;;;;;;5027130;28;20037;-56
2023/01/14 11:55:23;;;;;;;10.75;3.13;;;6.60;99.90;;;;;;5027647;28;20525;-58
2023/01/14 11:57:49;;;;;;;15.70;3.83;;;6.60;99.90;;;;;;5026990;28;20037;-55
2023/01/14 12:00:14;;;;;;;11.57;3.70;;;6.70;99.90;;;;;;5027217;28;20036;-58
2023/01/14 12:02:46;;;;;;;10.00;3.13;;;6.60;99.90;;;;;;5029676;28;20112;-60
2023/01/14 12:05:17;;;;;;;10.75;3.28;;;6.60;99.90;;;;;;5012831;28;20045;-58
2023/01/14 12:07:53;;;;;;;12.45;2.72;;;6.60;99.90;;;;;;5030845;28;20108;-54
2023/01/14 12:10:26;;;;;;;13.67;3.83;;;6.50;99.90;;;;;;5031057;28;20552;-58
2023/01/14 12:19:12;;;;;;;13.50;2.90;;;6.50;99.90;;;;;;5030506;28;20172;-59
2023/01/14 12:22:04;;;;;;;13.35;3.17;;;6.40;99.90;;;;;;5030738;28;20033;-58
2023/01/14 12:24:47;;;;;;;15.88;3.60;;;6.40;99.90;;;;;;5022342;28;20037;-61
2023/01/14 12:27:42;;;;;;;12.50;3.40;;;6.30;99.90;;;;;;5011155;28;20152;-59
2023/01/14 12:30:34;;;;;;;10.32;2.97;;;6.30;99.90;;;;;;5030036;28;20029;-57
2023/01/14 12:33:05;;;;;;;7.07;2.40;;;6.30;99.90;;;;;;4984635;28;20416;-60
2023/01/14 12:35:53;;;;;;;12.13;2.60;;;6.20;99.90;;;;;;5011109;28;20033;-59
2023/01/14 12:47:04;;;;;;;12.20;3.58;;;6.10;99.90;;;;;;5030439;28;20562;-59
2023/01/14 12:49:33;;;;;;;7.30;3.30;;;6.10;99.90;;;;;;5029812;28;20026;-60
2023/01/14 12:52:01;;;;;;;11.68;4.13;;;6.00;99.90;;;;;;5028551;28;20037;-58
2023/01/14 12:54:31;;;;;;;9.02;2.30;;;6.00;99.90;;;;;;5030451;28;20029;-61
2023/01/14 12:57:00;;;;;;;11.73;3.13;;;6.00;99.90;;;;;;5029799;28;20033;-59
2023/01/14 12:59:33;;;;;;;9.52;2.95;;;6.00;99.90;;;;;;5030288;28;20037;-60
2023/01/14 13:02:19;;;;;;;6.75;2.97;;;6.00;99.90;;;;;;5029707;28;20151;-59
2023/01/14 13:04:46;;;;;;;9.00;2.17;;;6.00;99.90;;;;;;5028178;28;20132;-60
2023/01/14 13:07:26;;;;;;;7.00;2.15;;;5.90;99.90;;;;;;5029981;28;20405;-60
2023/01/14 13:09:57;;;;;;;12.48;2.88;;;6.00;99.90;;;;;;5029794;28;20037;-60
2023/01/14 13:12:26;;;;;;;7.93;2.50;;;6.00;99.90;;;;;;5028850;28;20030;-58
2023/01/14 13:15:19;;;;;;;7.10;2.90;;;5.90;99.90;;;;;;5029577;28;20029;-59
2023/01/14 13:17:58;;;;;;;8.88;3.25;;;5.90;99.90;;;;;;5015721;28;20033;-58
2023/01/14 13:20:30;;;;;;;5.88;2.10;;;5.90;99.90;;;;;;5029724;28;20022;-56
2023/01/14 13:22:59;;;;;;;6.57;1.85;;;5.90;99.90;;;;;;5029783;28;20017;-59
2023/01/14 13:25:38;;;;;;;8.90;2.65;;;5.90;99.90;;;;;;5029169;28;20721;-58
2023/01/14 13:28:13;;;;;;;11.25;2.42;;;5.90;99.90;;;;;;5011330;28;20073;-55
2023/01/14 13:30:41;;;;;;;5.35;2.20;;;5.90;99.90;;;;;;5029333;28;20037;-55
2023/01/14 13:33:33;;;;;;;5.07;2.17;;;5.90;99.90;;;;;;5011481;28;20026;-57
2023/01/14 13:36:08;;;;;;;9.10;1.65;;;5.90;99.90;;;;;;5018986;28;20041;-59
2023/01/14 13:38:42;;;;;;;12.15;2.58;;;5.90;99.90;;;;;;5011274;28;20521;-59
2023/01/14 13:41:11;;;;;;;4.80;2.17;;;5.90;99.90;;;;;;5029084;28;20957;-59
2023/01/14 13:43:45;;;;;;;6.47;2.63;;;5.80;99.90;;;;;;5029124;28;20037;-60
2023/01/14 13:46:39;;;;;;;3.22;1.77;;;5.80;99.90;;;;;;5011318;28;20030;-60
2023/01/14 13:49:16;;;;;;;6.03;2.13;;;5.80;99.90;;;;;;5027926;28;20044;-58
2023/01/14 13:51:47;;;;;;;8.15;2.33;;;5.90;99.90;;;;;;5026761;28;20037;-60
2023/01/14 13:54:25;;;;;;;6.50;1.92;;;5.80;99.90;;;;;;5008750;28;20029;-57
2023/01/14 13:57:29;;;;;;;4.28;1.92;;;5.80;99.90;;;;;;5027418;28;20088;-59